createdAt,value
2023-04-15T00:04:37.509Z,16.00
2023-04-15T00:19:40.928Z,16.10
2023-04-15T00:34:43.571Z,15.00
2023-04-15T01:04:49.887Z,14.80
2023-04-15T01:19:53.081Z,17.00
2023-04-15T01:34:55.647Z,15.10
2023-04-15T01:49:58.207Z,16.20
2023-04-15T02:05:00.818Z,16.90
2023-04-15T02:35:09.308Z,18.80
2023-04-15T02:50:13.325Z,18.30
2023-04-15T03:05:16.262Z,16.60
2023-04-15T03:20:19.717Z,16.40
2023-04-15T03:35:22.674Z,16.40
2023-04-15T03:50:26.009Z,17.10
2023-04-15T04:05:28.672Z,14.20
2023-04-15T04:35:37.726Z,7.40
2023-04-15T04:50:40.474Z,4.20
2023-04-15T05:20:51.309Z,5.50
2023-04-15T05:35:56.617Z,4.40
2023-04-15T05:50:59.472Z,5.10
2023-04-15T06:06:02.723Z,5.80
2023-04-15T06:21:05.754Z,5.20
2023-04-15T06:36:08.483Z,4.70
2023-04-15T06:51:11.891Z,8.20
2023-04-15T07:06:14.967Z,4.10
2023-04-15T07:21:17.889Z,4.00
2023-04-15T07:36:20.868Z,7.20
2023-04-15T07:51:23.642Z,2.90
2023-04-15T08:06:27.471Z,3.20
2023-04-15T08:21:31.073Z,2.50
2023-04-15T08:36:33.784Z,3.30
2023-04-15T08:51:36.597Z,1.90
2023-04-15T09:06:40.298Z,2.60
2023-04-15T09:21:47.751Z,1.20
2023-04-15T09:36:56.317Z,0.40
2023-04-15T09:52:06.106Z,2.40
2023-04-15T10:07:09.982Z,1.50
2023-04-15T10:22:14.382Z,1.40
2023-04-15T10:37:34.767Z,1.10
2023-04-15T10:52:43.853Z,0.90
2023-04-15T11:07:49.173Z,1.10
2023-04-15T11:23:14.495Z,1.30
2023-04-15T11:38:19.618Z,1.90
2023-04-15T11:53:23.464Z,1.80
2023-04-15T12:08:26.082Z,2.00
2023-04-15T12:23:28.629Z,0.90
2023-04-15T12:38:31.825Z,1.20
2023-04-15T12:53:34.398Z,1.00
2023-04-15T13:08:42.563Z,1.80
2023-04-15T13:23:50.372Z,1.10
2023-04-15T13:38:53.094Z,1.10
2023-04-15T13:54:00.894Z,2.10
2023-04-15T14:09:04.251Z,1.80
2023-04-15T14:24:07.314Z,2.70
2023-04-15T14:39:10.937Z,2.90
2023-04-15T14:54:13.621Z,4.40
2023-04-15T15:09:16.679Z,5.30
2023-04-15T15:24:19.292Z,3.30
2023-04-15T15:39:23.517Z,4.90
2023-04-15T15:54:26.527Z,4.40
2023-04-15T16:09:29.155Z,3.90
2023-04-15T16:24:34.893Z,2.90
2023-04-15T16:39:37.783Z,3.80
2023-04-15T16:54:43.866Z,6.10
2023-04-15T17:09:46.650Z,8.20
2023-04-15T17:24:49.541Z,10.60
2023-04-15T17:39:57.524Z,9.70
2023-04-15T17:55:00.538Z,15.00
2023-04-15T18:10:03.763Z,16.30
2023-04-15T18:25:07.109Z,17.20
2023-04-15T18:40:10.586Z,20.40
2023-04-15T18:55:13.410Z,19.30
2023-04-15T19:10:16.194Z,21.10
2023-04-15T19:25:18.885Z,21.10
2023-04-15T20:10:27.283Z,28.10
2023-04-15T20:25:29.949Z,25.70
2023-04-15T20:40:33.725Z,23.10
2023-04-15T20:55:36.314Z,24.50
2023-04-15T21:10:40.374Z,23.10
2023-04-15T21:25:43.116Z,25.00
2023-04-15T22:10:51.009Z,25.80
2023-04-15T23:11:01.381Z,24.70
2023-04-15T23:26:04.391Z,21.80
2023-04-15T23:41:07.056Z,24.10
2023-04-15T23:56:09.876Z,30.00
